Hauptseite
METAR-TAF:

METAR-TAF

Flughäfen :

Flughafen Longyearbyen

Longyearbyen, Norwegen

Breite: 78-15N, Länge: 015-28E, Höhe: 2 m

Beobachtung

Neuester Wetterbericht von vor 32 Minuten, um 05:20 UTC
Wind 12 kt aus Ost
Temperatur 7°C
Luftfeuchtigkeit 66%
Luftdruck 1007 hPa
Sichtweite 10 km oder mehr
Leicht bewölkt in der Höhe von 2000 ft
Durchbrochene Bewölkung in der Höhe von 3500 ft

METAR: ENSB 170520Z 10012KT 9999 FEW020 BKN035 07/01 Q1007 NOSIG RMK WIND 1400FT 11013KT

Zeit: 07:52 (05:52 UTC)

Prognose

Gültige Prognose vom 17 um 00 UTC bis 17 um 24 UTC
Wind 10 kt aus Ost/Südost
Sichtweite 10 km oder mehr
Leicht bewölkt in der Höhe von 1500 ft
Durchbrochene Bewölkung in der Höhe von 3000 ft
Zeitweise
vom 17 um 18 UTC bis 17 um 24 UTC
Wind 20 kt aus Ost/Südost, Böen bis zu 30 kt

TAF: ENSB 1700/1724 12010KT 9999 FEW015 BKN030 TEMPO 1718/1724 12020G30KT

Wetterbeobachtungen und Prognosen von mehr als 4000 Flughäfen (METAR und TAF Bericht).

Die verfügbaren Stationen werden durch gelbe und rote Markierungen auf der Karte dargestellt.

Führen Sie die Maus auf sie, um den Namen der Station zu sehen.

Darauf klicken, um die Beobachtung von Wetterbeobachtungen und Prognosen zu sehen.

Um die Karte zu ändern : klicken Sie auf den grünen Tasten mit einem schwarzen Kreuz Zum Vergrößern, auf den grünen Button mit einem Gedankenstrich zu verkleinern, oder auf die grünen Pfeile für benachbarte Karten.


METAR-TAF: